Time;durP1;ratioP1;P1;durP2;ratioP2;P2;SDS_P1;SDS_P2;PMS_P1;PMS_P2;Temp;Humidity;BMP_temperature;BMP_pressure;BME280_temperature;BME280_humidity;BME280_pressure;Samples;Min_cycle;Max_cycle;Signal;HPM_P1;HPM_P2
2022/02/17 00:00:19;;;;;;;49.80;19.23;;;;;;;3.85;95.67;98706.55;1701709;84;21059;-83
2022/02/17 00:02:49;;;;;;;49.90;21.97;;;;;;;3.85;96.38;98708.27;1710977;83;21006;-83
2022/02/17 00:05:15;;;;;;;56.13;21.37;;;;;;;3.86;97.03;98718.56;1715265;83;21024;-83
2022/02/17 00:07:42;;;;;;;52.53;22.27;;;;;;;3.89;96.39;98714.67;1715996;80;21000;-84
2022/02/17 00:10:09;;;;;;;51.50;20.72;;;;;;;3.89;96.91;98715.11;1702868;81;21028;-83
2022/02/17 00:12:36;;;;;;;47.25;19.57;;;;;;;3.88;97.48;98723.67;1706816;80;21004;-84
2022/02/17 00:15:05;;;;;;;47.73;18.90;;;;;;;3.83;97.63;98722.85;1734189;82;20980;-84
2022/02/17 00:17:32;;;;;;;49.20;18.60;;;;;;;3.83;96.01;98728.00;1722332;83;21004;-84
2022/02/17 00:19:58;;;;;;;46.05;18.07;;;;;;;3.86;94.59;98723.70;1711920;81;20984;-84
2022/02/17 00:22:25;;;;;;;44.45;18.65;;;;;;;3.85;94.63;98721.98;1709083;81;20988;-84
2022/02/17 00:24:52;;;;;;;40.00;17.70;;;;;;;3.80;95.80;98723.73;1721794;81;20981;-84
2022/02/17 00:27:19;;;;;;;39.15;16.27;;;;;;;3.74;96.01;98726.30;1722742;82;21074;-84
2022/02/17 00:29:46;;;;;;;34.48;15.72;;;;;;;3.69;96.48;98722.91;1726624;81;20972;-83
2022/02/17 00:32:13;;;;;;;38.73;17.37;;;;;;;3.60;96.91;98719.91;1721594;82;21095;-83
2022/02/17 00:34:39;;;;;;;35.90;15.65;;;;;;;3.56;96.83;98723.35;1705085;81;21063;-83
2022/02/17 00:37:06;;;;;;;35.15;15.43;;;;;;;3.49;97.20;98719.11;1710070;81;21015;-84
2022/02/17 00:39:34;;;;;;;35.65;15.75;;;;;;;3.42;97.69;98710.53;1703160;82;20985;-84
2022/02/17 00:42:02;;;;;;;35.73;14.75;;;;;;;3.45;96.36;98705.84;1713968;81;20976;-84
2022/02/17 00:44:29;;;;;;;33.67;15.25;;;;;;;3.42;96.46;98704.55;1657731;86;22118;-84
2022/02/17 00:46:56;;;;;;;34.25;14.95;;;;;;;3.37;95.50;98700.28;1672377;82;21320;-84
2022/02/17 00:49:26;;;;;;;35.52;15.65;;;;;;;3.32;95.45;98696.01;1704949;82;20981;-83
2022/02/17 00:51:54;;;;;;;33.23;14.65;;;;;;;3.27;96.02;98692.17;1648988;85;21051;-83
2022/02/17 00:54:22;;;;;;;32.63;15.00;;;;;;;3.23;96.23;98693.04;1648935;85;21067;-82
2022/02/17 00:56:49;;;;;;;31.80;14.00;;;;;;;3.23;96.59;98687.05;1649005;84;21060;-79
2022/02/17 00:59:16;;;;;;;35.80;15.35;;;;;;;3.22;97.36;98687.89;1674361;83;21330;-81
2022/02/17 01:01:46;;;;;;;34.75;14.47;;;;;;;3.23;97.52;98694.77;1678807;83;21039;-80
2022/02/17 01:04:11;;;;;;;39.58;15.60;;;;;;;3.23;96.25;98684.48;1676056;83;21063;-80
2022/02/17 01:06:39;;;;;;;36.03;14.63;;;;;;;3.24;96.61;98697.74;1655993;84;21056;-81
2022/02/17 01:09:08;;;;;;;36.50;15.58;;;;;;;3.26;94.84;98687.88;1696189;80;21542;-81
2022/02/17 01:11:35;;;;;;;38.17;15.60;;;;;;;3.26;95.23;98681.45;1696083;82;21039;-84
2022/02/17 01:14:03;;;;;;;40.80;14.90;;;;;;;3.29;95.28;98686.60;1693406;81;20976;-84
2022/02/17 01:16:30;;;;;;;38.67;15.75;;;;;;;3.33;95.25;98677.17;1717846;80;21051;-82
2022/02/17 01:18:57;;;;;;;33.90;15.35;;;;;;;3.35;94.88;98675.02;1722169;80;21267;-84
2022/02/17 01:21:24;;;;;;;43.50;16.62;;;;;;;3.38;95.22;98667.72;1718793;82;21043;-83
2022/02/17 01:23:50;;;;;;;38.38;15.65;;;;;;;3.41;95.39;98664.31;1729395;83;20969;-83
2022/02/17 01:26:17;;;;;;;42.08;17.32;;;;;;;3.46;95.44;98663.84;1725246;83;20996;-83
2022/02/17 01:28:48;;;;;;;48.00;18.02;;;;;;;3.51;94.50;98659.13;1717406;81;21064;-82
2022/02/17 01:31:17;;;;;;;40.48;16.90;;;;;;;3.53;95.62;98653.98;1687146;83;21033;-83
2022/02/17 01:33:43;;;;;;;41.55;17.67;;;;;;;3.53;96.12;98655.27;1724456;82;20989;-84
2022/02/17 01:36:12;;;;;;;39.83;17.20;;;;;;;3.52;96.36;98647.12;1719153;83;20961;-83
2022/02/17 01:38:42;;;;;;;44.03;17.85;;;;;;;3.51;96.46;98650.13;1699983;81;21305;-84
2022/02/17 01:41:09;;;;;;;43.05;17.77;;;;;;;3.52;95.15;98648.41;1707350;81;21052;-84
2022/02/17 01:43:37;;;;;;;40.58;18.20;;;;;;;3.51;95.30;98637.71;1674018;84;21054;-83
2022/02/17 01:46:05;;;;;;;39.35;17.42;;;;;;;3.49;96.00;98634.30;1697105;82;20970;-84
2022/02/17 01:48:32;;;;;;;44.40;15.80;;;;;;;3.46;96.02;98627.46;1703945;81;21019;-82
2022/02/17 01:50:59;;;;;;;44.33;17.23;;;;;;;3.42;95.61;98621.87;1692835;82;21004;-84
2022/02/17 01:53:27;;;;;;;38.73;16.00;;;;;;;3.34;95.09;98613.34;1717500;80;20979;-83
2022/02/17 01:55:57;;;;;;;37.23;15.78;;;;;;;3.30;95.77;98600.09;1717037;81;20945;-83
2022/02/17 01:58:24;;;;;;;36.77;16.62;;;;;;;3.28;96.40;98588.56;1714999;82;21026;-84
2022/02/17 02:00:51;;;;;;;44.55;16.80;;;;;;;3.29;95.80;98588.97;1674408;84;21020;-84
2022/02/17 02:03:19;;;;;;;40.90;16.17;;;;;;;3.28;96.02;98585.11;1697059;82;20964;-83
2022/02/17 02:05:56;;;;;;;40.85;16.27;;;;;;;3.25;96.03;98569.29;1695148;83;21036;-84
2022/02/17 02:08:24;;;;;;;36.13;15.95;;;;;;;3.19;95.90;98556.03;1681416;83;21016;-84
2022/02/17 02:10:52;;;;;;;42.58;16.73;;;;;;;3.23;96.68;98568.44;1696651;80;20969;-83
2022/02/17 02:13:19;;;;;;;43.02;16.77;;;;;;;3.22;97.13;98565.88;1701040;80;21079;-84
2022/02/17 02:15:53;;;;;;;40.73;18.00;;;;;;;3.18;97.27;98561.17;1712617;80;21008;-84
2022/02/17 02:18:23;;;;;;;39.98;16.02;;;;;;;3.18;97.10;98549.61;1699425;83;21016;-85
2022/02/17 02:20:54;;;;;;;34.40;15.93;;;;;;;3.09;97.66;98549.67;1702219;82;20997;-84
2022/02/17 02:23:22;;;;;;;40.90;16.93;;;;;;;3.08;96.94;98544.94;1671331;83;21036;-81
2022/02/17 02:25:52;;;;;;;34.25;15.13;;;;;;;3.11;96.80;98535.11;1681511;82;21049;-82
2022/02/17 02:28:27;;;;;;;42.78;15.60;;;;;;;3.04;97.37;98531.69;1700723;81;21099;-80
2022/02/17 02:30:54;;;;;;;35.15;15.18;;;;;;;2.98;97.56;98536.44;1715155;80;21031;-81
2022/02/17 02:33:22;;;;;;;40.70;16.15;;;;;;;2.99;97.49;98536.85;1733817;78;20999;-82
2022/02/17 02:35:50;;;;;;;35.83;16.00;;;;;;;3.00;97.82;98528.70;1737838;78;21034;-80
2022/02/17 02:38:19;;;;;;;38.05;16.93;;;;;;;3.00;97.94;98532.56;1734564;78;21045;-83
2022/02/17 02:40:46;;;;;;;41.13;18.12;;;;;;;3.00;97.83;98537.70;1743579;81;21040;-84
2022/02/17 02:43:15;;;;;;;39.83;18.00;;;;;;;2.96;98.84;98529.17;1741839;79;20976;-84
2022/02/17 02:45:45;;;;;;;42.10;16.77;;;;;;;3.00;98.39;98531.28;1723430;81;21037;-84
2022/02/17 02:48:15;;;;;;;46.20;17.90;;;;;;;3.02;98.11;98524.86;1744025;80;21047;-84
2022/02/17 02:50:42;;;;;;;43.05;16.35;;;;;;;2.99;98.64;98522.73;1746534;81;21020;-85
2022/02/17 02:53:14;;;;;;;42.75;16.40;;;;;;;3.01;97.99;98521.88;1744343;81;21036;-83
2022/02/17 02:55:37;;;;;;;37.75;15.32;;;;;;;3.02;98.23;98516.72;1744092;81;21012;-84
2022/02/17 02:58:04;;;;;;;41.25;16.42;;;;;;;3.05;97.35;98515.88;1734737;82;21023;-83
2022/02/17 03:00:30;;;;;;;40.60;16.57;;;;;;;3.09;96.71;98515.00;1730114;80;21000;-84
2022/02/17 03:02:57;;;;;;;40.03;15.68;;;;;;;3.11;96.19;98515.84;1760000;78;20975;-86
2022/02/17 03:05:23;;;;;;;39.90;15.40;;;;;;;3.13;96.47;98520.54;1739990;80;21005;-84
2022/02/17 03:07:52;;;;;;;42.00;14.30;;;;;;;3.08;96.89;98501.72;1743805;81;20981;-84
2022/02/17 03:10:18;;;;;;;38.92;15.18;;;;;;;3.20;97.19;98518.34;1739550;81;21004;-83
2022/02/17 03:12:45;;;;;;;35.80;14.60;;;;;;;3.23;97.50;98522.64;1738707;81;21009;-84
2022/02/17 03:15:13;;;;;;;38.42;14.73;;;;;;;3.21;98.21;98529.06;1718195;81;21036;-84
2022/02/17 03:17:40;;;;;;;37.23;14.30;;;;;;;3.25;97.27;98522.20;1736605;81;20970;-84
2022/02/17 03:20:08;;;;;;;44.05;14.70;;;;;;;3.26;97.84;98526.02;1747054;81;20973;-82
2022/02/17 03:22:37;;;;;;;36.03;14.55;;;;;;;3.30;97.39;98521.32;1736978;81;21009;-84
2022/02/17 03:25:07;;;;;;;31.35;12.80;;;;;;;3.33;97.04;98511.02;1718188;81;20979;-85
2022/02/17 03:27:35;;;;;;;34.08;13.15;;;;;;;3.35;97.37;98509.29;1723079;81;21032;-83
2022/02/17 03:30:09;;;;;;;29.02;12.23;;;;;;;3.39;96.84;98515.27;1754577;80;21329;-84
2022/02/17 03:32:37;;;;;;;29.57;12.82;;;;;;;3.42;96.25;98507.97;1753645;81;21339;-84
2022/02/17 03:35:07;;;;;;;30.08;11.93;;;;;;;3.44;96.85;98505.80;1757191;80;21012;-84
2022/02/17 03:37:34;;;;;;;31.87;11.83;;;;;;;3.46;97.45;98499.37;1717187;81;21024;-87
2022/02/17 03:40:03;;;;;;;23.83;10.82;;;;;;;3.48;97.41;98497.64;1711344;81;21075;-83
2022/02/17 03:42:32;;;;;;;27.37;11.33;;;;;;;3.47;98.61;98495.95;1687026;84;21060;-84
2022/02/17 03:45:00;;;;;;;30.88;11.43;;;;;;;3.47;97.52;98486.96;1716659;82;21027;-82
2022/02/17 03:47:29;;;;;;;22.73;10.88;;;;;;;3.47;97.83;98479.25;1712119;82;21031;-83
2022/02/17 03:50:00;;;;;;;31.27;11.75;;;;;;;3.47;97.37;98476.24;1713176;83;20991;-84
2022/02/17 03:52:30;;;;;;;33.42;10.98;;;;;;;3.48;96.35;98469.37;1713138;82;21028;-84
2022/02/17 03:55:06;;;;;;;32.60;10.45;;;;;;;3.43;97.05;98468.57;1708670;81;21024;-84
2022/02/17 03:57:32;;;;;;;22.90;8.98;;;;;;;3.34;97.32;98477.17;1711493;82;21008;-84
2022/02/17 04:00:02;;;;;;;17.98;7.80;;;;;;;3.32;97.33;98457.06;1698600;82;21040;-84
2022/02/17 04:02:31;;;;;;;22.75;8.80;;;;;;;3.29;96.50;98455.81;1719613;80;20996;-79
2022/02/17 04:04:57;;;;;;;25.00;9.50;;;;;;;3.14;99.09;98455.45;1719585;83;21008;-80
2022/02/17 04:07:24;;;;;;;24.37;9.53;;;;;;;3.14;98.58;98460.18;1713252;82;21039;-82
2022/02/17 04:09:50;;;;;;;25.25;9.80;;;;;;;3.11;99.13;98447.78;1719390;82;20990;-84
2022/02/17 04:12:17;;;;;;;22.32;9.35;;;;;;;3.12;98.66;98446.91;1689758;82;21279;-81
2022/02/17 04:14:44;;;;;;;29.52;11.20;;;;;;;3.09;99.81;98454.20;1709574;82;21025;-80
2022/02/17 04:17:11;;;;;;;30.60;11.85;;;;;;;3.05;100.00;98452.95;1739278;82;20995;-85
2022/02/17 04:19:55;;;;;;;26.95;9.98;;;;;;;3.06;99.06;98448.22;1725698;82;21056;-87
2022/02/17 04:22:23;;;;;;;32.00;11.00;;;;;;;3.04;99.54;98448.66;1735354;81;21011;-85
2022/02/17 04:25:01;;;;;;;32.20;11.40;;;;;;;3.05;98.84;98446.53;1707832;81;21042;-83
2022/02/17 04:27:27;;;;;;;29.02;10.95;;;;;;;3.01;99.47;98440.55;1701587;82;21054;-85
2022/02/17 04:29:55;;;;;;;29.75;11.93;;;;;;;3.01;99.24;98429.00;1715535;81;21016;-84
2022/02/17 04:32:22;;;;;;;28.95;11.33;;;;;;;2.99;98.99;98426.43;1739335;80;20999;-85
2022/02/17 04:34:49;;;;;;;28.50;11.15;;;;;;;2.90;100.00;98420.48;1683397;80;21437;-79
2022/02/17 04:37:18;;;;;;;32.63;12.13;;;;;;;2.96;99.94;98413.63;1743891;80;21036;-82
2022/02/17 04:39:44;;;;;;;27.00;10.58;;;;;;;2.93;100.00;98407.20;1747592;81;21007;-80
2022/02/17 04:42:18;;;;;;;29.52;10.48;;;;;;;2.90;100.00;98403.36;1737595;80;21039;-81
2022/02/17 04:44:47;;;;;;;32.63;12.65;;;;;;;2.98;100.00;98391.77;1743758;81;21060;-81
2022/02/17 04:47:16;;;;;;;29.85;10.88;;;;;;;3.03;99.49;98387.91;1745223;82;21582;-82
2022/02/17 04:49:42;;;;;;;36.58;12.25;;;;;;;2.99;99.72;98385.34;1723902;82;21011;-82
2022/02/17 04:52:10;;;;;;;38.02;12.73;;;;;;;2.95;98.94;98375.95;1750498;81;21323;-83
2022/02/17 04:54:38;;;;;;;31.85;12.10;;;;;;;3.05;99.07;98381.89;1730137;81;20908;-84
2022/02/17 04:57:06;;;;;;;33.20;12.58;;;;;;;3.08;99.10;98378.00;1750338;80;20945;-83
2022/02/17 04:59:35;;;;;;;31.27;11.68;;;;;;;3.09;99.36;98384.02;1754420;80;21016;-84
2022/02/17 05:02:02;;;;;;;28.62;11.80;;;;;;;3.08;99.12;98378.44;1752559;80;21024;-83
2022/02/17 05:04:34;;;;;;;28.05;11.50;;;;;;;3.10;98.58;98371.14;1769445;80;21068;-83
2022/02/17 05:07:08;;;;;;;26.20;10.65;;;;;;;3.07;99.08;98365.20;1749924;81;21012;-83
2022/02/17 05:09:36;;;;;;;26.73;11.85;;;;;;;3.05;100.00;98370.77;1741725;80;21103;-82
2022/02/17 05:12:03;;;;;;;29.77;11.83;;;;;;;3.08;100.00;98361.75;1749770;81;21062;-85
2022/02/17 05:14:31;;;;;;;31.42;11.83;;;;;;;3.07;100.00;98346.78;1732524;82;20997;-84
2022/02/17 05:16:58;;;;;;;30.90;12.58;;;;;;;3.06;100.00;98351.48;1720663;83;21094;-84
2022/02/17 05:19:26;;;;;;;26.37;11.53;;;;;;;3.02;100.00;98349.80;1736828;79;21016;-84
2022/02/17 05:22:10;;;;;;;28.70;11.40;;;;;;;3.06;99.86;98346.78;1742779;79;21305;-80
2022/02/17 05:24:56;;;;;;;26.33;10.75;;;;;;;3.07;99.29;98336.50;1696984;80;21110;-81
2022/02/17 05:27:22;;;;;;;25.70;11.12;;;;;;;3.10;99.42;98340.31;1756425;81;20962;-83
2022/02/17 05:29:50;;;;;;;25.48;11.48;;;;;;;3.09;99.08;98343.77;1760785;78;21042;-84
2022/02/17 05:32:27;;;;;;;31.23;11.95;;;;;;;2.96;99.53;98350.71;1761474;78;20972;-84
2022/02/17 05:35:05;;;;;;;25.80;10.95;;;;;;;2.89;98.89;98349.47;1747039;82;21040;-84
2022/02/17 05:37:37;;;;;;;21.35;8.85;;;;;;;2.80;99.11;98356.78;1757055;79;21067;-83
2022/02/17 05:40:17;;;;;;;20.17;8.33;;;;;;;2.69;99.36;98353.00;1759052;78;20960;-84
2022/02/17 05:42:44;;;;;;;25.20;9.68;;;;;;;2.62;98.73;98344.05;1753497;80;20967;-83
2022/02/17 05:45:11;;;;;;;24.18;9.80;;;;;;;2.55;99.19;98347.94;1759419;78;21036;-83
2022/02/17 05:47:41;;;;;;;18.73;8.53;;;;;;;2.56;99.19;98339.36;1761588;79;21038;-83
2022/02/17 05:50:06;;;;;;;24.75;9.45;;;;;;;2.51;99.05;98346.25;1756352;77;21035;-84
2022/02/17 05:52:32;;;;;;;25.40;11.20;;;;;;;2.56;98.74;98343.22;1765184;78;21023;-83
2022/02/17 05:54:58;;;;;;;20.10;9.20;;;;;;;2.58;98.61;98343.22;1764753;80;21115;-84
2022/02/17 05:57:25;;;;;;;23.47;9.43;;;;;;;2.56;98.81;98337.23;1760240;78;21017;-83
2022/02/17 05:59:51;;;;;;;25.32;11.22;;;;;;;2.58;98.82;98340.64;1762417;80;21097;-83
2022/02/17 06:02:18;;;;;;;25.02;10.20;;;;;;;2.58;99.43;98336.80;1759938;79;21022;-82
2022/02/17 06:04:44;;;;;;;28.52;11.48;;;;;;;2.59;99.32;98339.36;1752576;80;20980;-83
2022/02/17 06:07:13;;;;;;;25.43;10.78;;;;;;;2.63;99.37;98336.80;1764774;80;20992;-84
2022/02/17 06:09:41;;;;;;;24.25;9.80;;;;;;;2.71;99.17;98338.88;1764945;79;21004;-84
2022/02/17 06:12:08;;;;;;;18.57;8.48;;;;;;;2.67;99.12;98335.48;1760051;80;20919;-83
2022/02/17 06:14:35;;;;;;;21.17;9.25;;;;;;;2.72;98.99;98338.01;1759901;79;21006;-82
2022/02/17 06:17:02;;;;;;;19.82;9.55;;;;;;;2.79;98.46;98333.27;1760176;80;21024;-84
2022/02/17 06:19:29;;;;;;;19.35;9.68;;;;;;;2.78;97.90;98340.53;1739246;81;20989;-84
2022/02/17 06:21:55;;;;;;;22.77;9.48;;;;;;;2.74;97.92;98332.44;1729544;82;21034;-84
2022/02/17 06:24:23;;;;;;;18.75;8.63;;;;;;;2.69;97.71;98322.20;1761184;80;21067;-82
2022/02/17 06:26:49;;;;;;;23.57;10.15;;;;;;;2.63;97.53;98326.53;1780210;80;21074;-83
2022/02/17 06:29:17;;;;;;;21.25;9.73;;;;;;;2.65;97.35;98335.08;1787598;78;21021;-84
2022/02/17 06:31:45;;;;;;;22.10;10.25;;;;;;;2.63;97.37;98327.81;1775428;77;20975;-84
2022/02/17 06:34:12;;;;;;;22.73;9.25;;;;;;;2.57;97.63;98323.56;1740131;81;20984;-84
2022/02/17 06:36:41;;;;;;;24.15;10.25;;;;;;;2.54;97.39;98319.27;1780911;78;21061;-85
2022/02/17 06:39:08;;;;;;;22.37;9.73;;;;;;;2.56;97.32;98318.84;1766051;79;20991;-83
2022/02/17 06:41:35;;;;;;;22.67;9.23;;;;;;;2.56;97.67;98312.86;1722058;81;21008;-85
2022/02/17 06:44:02;;;;;;;21.30;9.53;;;;;;;2.60;97.56;98306.84;1703734;83;21103;-84
2022/02/17 06:46:29;;;;;;;21.85;9.75;;;;;;;2.63;97.25;98298.30;1708801;81;20989;-83
2022/02/17 06:48:56;;;;;;;23.83;9.15;;;;;;;2.64;97.72;98304.69;1693009;83;21047;-84
2022/02/17 06:54:17;;;;;;;19.15;8.40;;;;;;;2.70;97.26;98297.38;1739199;80;21134;-83
2022/02/17 06:56:44;;;;;;;20.55;9.25;;;;;;;2.68;97.29;98297.38;1716910;81;21508;-85
2022/02/17 06:59:11;;;;;;;21.95;10.38;;;;;;;2.62;97.34;98299.99;1795700;79;21561;-90
2022/02/17 07:01:38;;;;;;;20.77;9.90;;;;;;;2.65;97.29;98300.42;1783427;79;21007;-84
2022/02/17 07:04:04;;;;;;;24.02;9.33;;;;;;;2.63;97.07;98304.28;1769048;78;21172;-84
2022/02/17 07:06:31;;;;;;;23.35;8.58;;;;;;;2.64;97.14;98307.69;1721479;81;21126;-83
2022/02/17 07:08:58;;;;;;;24.50;9.78;;;;;;;2.61;97.27;98305.12;1732290;79;21022;-84
2022/02/17 07:11:24;;;;;;;23.62;8.85;;;;;;;2.62;97.09;98299.15;1750848;78;20996;-81
2022/02/17 07:16:42;;;;;;;27.98;9.85;;;;;;;2.70;97.01;98284.55;1713780;81;21106;-81
2022/02/17 07:19:08;;;;;;;23.12;9.65;;;;;;;2.69;97.76;98282.42;1747135;80;20928;-79
2022/02/17 07:21:35;;;;;;;27.40;9.75;;;;;;;2.74;98.04;98278.53;1751221;80;21022;-80
2022/02/17 07:24:02;;;;;;;30.50;10.95;;;;;;;2.82;97.52;98279.33;1747375;79;21637;-80
2022/02/17 07:26:30;;;;;;;24.18;10.43;;;;;;;2.71;97.62;98255.47;1753318;80;21034;-84
2022/02/17 07:28:56;;;;;;;28.65;10.45;;;;;;;2.82;97.68;98269.05;1756883;80;22484;-82
2022/02/17 07:31:22;;;;;;;25.23;10.08;;;;;;;2.86;97.97;98269.45;1753670;80;20981;-83
2022/02/17 07:33:49;;;;;;;27.07;10.20;;;;;;;2.88;97.99;98267.73;1742266;81;20975;-83
2022/02/17 07:36:17;;;;;;;24.25;10.58;;;;;;;2.95;97.73;98273.25;1755966;80;21006;-84
2022/02/17 07:38:43;;;;;;;27.62;10.58;;;;;;;2.99;97.56;98267.22;1759898;80;20979;-85
2022/02/17 07:41:11;;;;;;;26.02;9.93;;;;;;;3.04;97.53;98261.20;1754898;80;20949;-84
2022/02/17 07:43:39;;;;;;;29.00;11.70;;;;;;;3.08;97.53;98247.46;1750061;80;21055;-84
2022/02/17 07:46:07;;;;;;;27.17;10.53;;;;;;;3.17;97.25;98241.81;1738448;79;21048;-86
2022/02/17 07:48:34;;;;;;;27.55;11.53;;;;;;;3.26;96.98;98238.73;1718007;81;20988;-88
2022/02/17 07:51:01;;;;;;;25.77;10.10;;;;;;;3.36;96.34;98236.09;1741448;81;20964;-88
2022/02/17 07:53:27;;;;;;;34.27;12.15;;;;;;;3.35;96.31;98242.52;1749421;81;21047;-88
2022/02/17 07:55:54;;;;;;;30.57;11.15;;;;;;;3.38;96.35;98233.48;1736201;80;21061;-89
2022/02/17 07:58:20;;;;;;;26.50;11.73;;;;;;;3.43;95.94;98234.73;1736214;81;21149;-84
2022/02/17 08:00:47;;;;;;;27.70;11.70;;;;;;;3.47;95.81;98229.98;1747419;80;20979;-86
2022/02/17 08:03:15;;;;;;;28.42;10.40;;;;;;;3.48;95.65;98222.67;1754201;80;21110;-87
2022/02/17 08:05:42;;;;;;;36.53;11.53;;;;;;;3.51;95.64;98211.09;1753137;81;20991;-83
2022/02/17 08:08:11;;;;;;;30.85;10.65;;;;;;;3.49;95.52;98202.55;1728685;81;21039;-85
2022/02/17 08:10:37;;;;;;;33.25;11.78;;;;;;;3.53;95.54;98200.36;1750920;79;21001;-83
2022/02/17 08:13:05;;;;;;;28.32;11.80;;;;;;;3.53;95.43;98206.34;1710768;79;21002;-82
2022/02/17 08:15:32;;;;;;;28.87;11.30;;;;;;;3.55;95.44;98206.33;1755275;80;21019;-82
2022/02/17 08:18:00;;;;;;;31.97;11.53;;;;;;;3.51;95.57;98205.95;1742061;80;21123;-84
2022/02/17 08:20:27;;;;;;;31.17;12.35;;;;;;;3.50;95.74;98210.25;1745891;81;21035;-78
2022/02/17 08:22:56;;;;;;;31.90;11.78;;;;;;;3.55;95.12;98202.48;1744141;80;20972;-85
2022/02/17 08:25:23;;;;;;;38.30;12.58;;;;;;;3.57;95.35;98196.44;1765541;80;21114;-82
2022/02/17 08:27:51;;;;;;;31.00;12.35;;;;;;;3.56;95.17;98196.45;1769992;79;20988;-80
2022/02/17 08:30:19;;;;;;;32.58;12.55;;;;;;;3.46;95.17;98203.44;1774749;79;20969;-83
2022/02/17 08:32:46;;;;;;;29.12;11.55;;;;;;;3.37;95.55;98205.66;1754818;79;21305;-80
2022/02/17 08:35:14;;;;;;;31.20;13.18;;;;;;;3.45;95.19;98200.88;1756973;80;21531;-80
2022/02/17 08:37:42;;;;;;;34.38;14.93;;;;;;;3.43;95.19;98191.89;1747025;80;20993;-80
2022/02/17 08:40:11;;;;;;;36.08;13.32;;;;;;;3.44;95.25;98191.45;1745836;81;21246;-83
2022/02/17 08:42:38;;;;;;;40.70;13.93;;;;;;;3.46;95.34;98180.31;1761215;81;21356;-83
2022/02/17 08:45:05;;;;;;;36.15;13.53;;;;;;;3.48;95.24;98170.87;1752148;80;21376;-83
2022/02/17 08:47:32;;;;;;;32.95;13.70;;;;;;;3.55;94.45;98169.06;1735541;81;21018;-84
2022/02/17 08:49:58;;;;;;;31.17;12.47;;;;;;;3.55;94.97;98170.35;1716491;83;21027;-83
2022/02/17 08:52:25;;;;;;;32.05;14.03;;;;;;;3.51;95.09;98149.41;1729322;82;21009;-84
2022/02/17 08:54:51;;;;;;;36.58;13.83;;;;;;;3.67;95.14;98156.06;1696024;81;21021;-83
2022/02/17 08:57:17;;;;;;;34.53;14.25;;;;;;;3.75;94.87;98152.95;1699416;81;20969;-85
2022/02/17 08:59:44;;;;;;;34.63;13.95;;;;;;;3.81;94.71;98158.45;1713487;83;21014;-84
2022/02/17 09:02:11;;;;;;;38.90;16.05;;;;;;;3.85;94.66;98157.98;1722939;83;21002;-86
2022/02/17 09:04:38;;;;;;;41.70;16.42;;;;;;;3.90;94.89;98149.34;1718610;82;21008;-83
2022/02/17 09:07:05;;;;;;;37.38;14.58;;;;;;;3.98;94.44;98149.25;1715622;83;21052;-83
2022/02/17 09:09:32;;;;;;;35.15;13.98;;;;;;;3.96;94.61;98149.27;1713639;80;21014;-85
2022/02/17 09:11:58;;;;;;;44.18;15.60;;;;;;;3.99;94.47;98135.06;1715160;79;21076;-83
2022/02/17 09:14:25;;;;;;;46.33;16.57;;;;;;;4.03;94.64;98135.03;1713646;81;20966;-84
2022/02/17 09:16:53;;;;;;;39.03;15.23;;;;;;;4.05;94.36;98129.42;1721265;80;21010;-84
2022/02/17 09:19:21;;;;;;;44.48;15.78;;;;;;;4.04;94.65;98117.42;1710850;81;21089;-89
2022/02/17 09:21:48;;;;;;;36.85;13.93;;;;;;;4.05;94.61;98116.13;1719026;81;21103;-91
2022/02/17 09:24:17;;;;;;;38.50;14.78;;;;;;;4.14;94.69;98110.02;1736640;81;20969;-89
2022/02/17 09:26:48;;;;;;;36.20;14.28;;;;;;;4.19;94.74;98106.47;1741222;79;21024;-83
2022/02/17 09:29:14;;;;;;;38.55;13.50;;;;;;;4.27;94.32;98097.80;1755638;81;20955;-83
2022/02/17 09:31:41;;;;;;;34.50;13.15;;;;;;;4.32;94.60;98089.58;1742305;81;21028;-86
2022/02/17 09:34:10;;;;;;;39.05;15.05;;;;;;;4.40;94.55;98094.16;1730762;79;21112;-88
2022/02/17 09:36:37;;;;;;;29.85;13.65;;;;;;;4.51;94.33;98101.69;1713940;82;21047;-83
2022/02/17 09:39:04;;;;;;;29.63;13.60;;;;;;;4.60;94.29;98089.13;1724426;82;21030;-82
2022/02/17 09:41:33;;;;;;;32.35;14.47;;;;;;;4.64;93.83;98070.17;1722059;82;20989;-84
2022/02/17 09:44:08;;;;;;;35.68;14.45;;;;;;;4.71;93.48;98089.77;1691313;82;21296;-84
2022/02/17 09:49:09;;;;;;;31.60;14.35;;;;;;;4.88;92.90;98086.91;1714572;83;21091;-94
2022/02/17 09:51:35;;;;;;;31.55;15.10;;;;;;;4.92;93.28;98074.38;1722144;82;21613;-91
2022/02/17 09:54:03;;;;;;;39.67;14.43;;;;;;;4.99;92.82;98075.94;1727626;82;21046;-89
2022/02/17 09:56:30;;;;;;;31.20;12.35;;;;;;;5.07;92.58;98076.64;1728684;81;21106;-84
2022/02/17 09:58:56;;;;;;;35.08;13.60;;;;;;;5.12;92.63;98054.67;1687300;83;21027;-82
2022/02/17 10:01:27;;;;;;;31.70;14.05;;;;;;;5.19;92.56;98036.91;1728071;82;21004;-82
2022/02/17 10:04:17;;;;;;;30.02;13.05;;;;;;;5.29;92.39;98033.70;1733783;81;21028;-82
2022/02/17 10:06:47;;;;;;;30.48;13.95;;;;;;;5.43;92.66;98013.66;1735445;81;21050;-83
2022/02/17 10:09:15;;;;;;;33.40;13.05;;;;;;;5.60;92.52;98005.54;1734925;81;21634;-84
2022/02/17 10:11:45;;;;;;;37.28;14.20;;;;;;;5.77;92.27;97991.83;1737619;81;21248;-81
2022/02/17 10:14:15;;;;;;;36.50;14.83;;;;;;;5.89;91.70;97988.53;1735173;81;21085;-81
2022/02/17 10:17:03;;;;;;;36.38;14.25;;;;;;;6.06;91.73;97996.75;1772171;80;21038;-81
2022/02/17 10:19:42;;;;;;;31.85;15.43;;;;;;;6.24;91.37;97997.19;1745535;80;20986;-82
2022/02/17 10:22:16;;;;;;;28.38;13.93;;;;;;;6.51;90.95;97978.41;1759982;80;20968;-83
2022/02/17 10:24:49;;;;;;;36.05;15.18;;;;;;;6.84;90.66;97980.10;1756143;79;21105;-83
2022/02/17 10:27:26;;;;;;;34.05;13.40;;;;;;;7.10;88.42;97972.90;1759156;80;21045;-82
2022/02/17 10:30:13;;;;;;;30.40;12.50;;;;;;;7.35;88.07;97969.99;1757296;80;20994;-81
2022/02/17 10:33:00;;;;;;;25.52;11.35;;;;;;;7.56;86.95;97965.08;1751218;80;21010;-79
2022/02/17 10:35:28;;;;;;;27.25;11.75;;;;;;;7.76;86.27;97966.59;1750578;80;21014;-82
2022/02/17 10:37:57;;;;;;;23.98;12.25;;;;;;;7.92;85.54;97940.22;1745908;80;21475;-81
2022/02/17 10:40:31;;;;;;;30.88;12.05;;;;;;;8.10;84.72;97934.43;1756729;80;20996;-80
2022/02/17 10:43:07;;;;;;;25.27;12.98;;;;;;;8.31;85.15;97919.89;1754524;80;21062;-83
2022/02/17 10:45:34;;;;;;;27.30;12.73;;;;;;;8.44;82.07;97900.09;1756973;79;21049;-80
2022/02/17 10:48:20;;;;;;;25.08;12.68;;;;;;;8.68;83.60;97897.06;1754252;80;21024;-80
2022/02/17 10:51:15;;;;;;;27.45;12.07;;;;;;;8.76;82.92;97877.73;1744856;79;21047;-79
2022/02/17 10:53:45;;;;;;;22.05;11.68;;;;;;;8.93;83.44;97857.67;1756257;80;21182;-82
2022/02/17 10:56:16;;;;;;;25.57;12.03;;;;;;;9.00;81.67;97848.36;1758127;80;20984;-81
2022/02/17 10:58:48;;;;;;;27.93;13.20;;;;;;;9.12;81.17;97839.64;1752451;80;20979;-81
2022/02/17 11:01:17;;;;;;;27.50;13.78;;;;;;;9.24;81.89;97830.53;1752762;80;20947;-79
2022/02/17 11:03:44;;;;;;;21.77;10.48;;;;;;;9.39;80.58;97824.33;1748286;81;20988;-81
2022/02/17 11:06:13;;;;;;;25.32;11.00;;;;;;;9.49;80.26;97810.94;1750778;80;20999;-81
2022/02/17 11:08:44;;;;;;;21.02;9.33;;;;;;;9.65;80.06;97812.45;1752973;80;21048;-82
2022/02/17 11:11:17;;;;;;;32.60;11.00;;;;;;;9.86;77.38;97796.86;1756556;80;21021;-81
2022/02/17 11:13:43;;;;;;;30.37;10.65;;;;;;;10.13;79.68;97799.56;1750505;80;21114;-83
2022/02/17 11:16:10;;;;;;;19.65;8.85;;;;;;;10.42;76.11;97790.11;1753160;80;20998;-81
2022/02/17 11:18:39;;;;;;;23.25;10.55;;;;;;;10.66;78.28;97769.48;1759287;80;21097;-83
2022/02/17 11:21:07;;;;;;;19.67;10.15;;;;;;;10.84;76.96;97760.00;1761615;80;20968;-83
2022/02/17 11:23:36;;;;;;;22.73;10.60;;;;;;;10.98;72.53;97750.68;1759385;80;20974;-85
2022/02/17 11:26:28;;;;;;;20.30;8.75;;;;;;;11.17;73.50;97730.67;1759754;80;21699;-81
2022/02/17 11:28:54;;;;;;;12.07;5.87;;;;;;;11.39;71.98;97708.33;1757900;80;20986;-81
2022/02/17 11:31:21;;;;;;;11.80;5.20;;;;;;;11.63;66.43;97711.44;1761910;80;21087;-84
2022/02/17 11:33:57;;;;;;;12.40;6.00;;;;;;;11.90;67.18;97689.67;1750748;80;21003;-84
2022/02/17 11:36:30;;;;;;;12.95;5.35;;;;;;;12.13;62.09;97698.02;1740088;82;20968;-86
2022/02/17 11:39:05;;;;;;;12.07;5.53;;;;;;;12.29;62.21;97681.92;1761979;78;20977;-86
2022/02/17 11:41:35;;;;;;;12.47;5.50;;;;;;;12.44;61.40;97671.13;1758598;80;21002;-86